Terminal Aerodrome Forecast
Issued by NWS Melbourne, FL

Home | Current Version | Previous Version | Text Only | Print | Product List | Glossary On
Versions: 1 2 3 4 5 6 7 8 9 10 11 12 13 14 15 16 17 18 19 20
000
FTUS42 KMLB 242341
TAFMLB
TAF
KMLB 242341Z 2500/2524 30005KT P6SM BKN013 OVC040
     FM250400 32005KT 6SM BR FEW005 SCT015
      TEMPO 2509/2512 3SM BR BKN005
     FM251500 32004KT P6SM SCT035=

USA.gov is the U.S. government's official web portal to all federal, state and local government web resources and services.